Time;durP1;ratioP1;P1;durP2;ratioP2;P2;SDS_P1;SDS_P2;PMS_P1;PMS_P2;Temp;Humidity;BMP_temperature;BMP_pressure;BME280_temperature;BME280_humidity;BME280_pressure;Samples;Min_cycle;Max_cycle;Signal;HPM_P1;HPM_P2
2023/07/04 00:01:11;;;;;;;6.25;1.63;;;13.40;99.90;;;;;;5041322;28;20170;-57
2023/07/04 00:03:39;;;;;;;3.85;1.58;;;13.40;99.90;;;;;;5044475;28;20029;-58
2023/07/04 00:06:06;;;;;;;4.97;1.60;;;13.40;99.90;;;;;;5032760;28;20044;-57
2023/07/04 00:08:35;;;;;;;5.90;1.60;;;13.30;99.90;;;;;;5040828;28;20449;-58
2023/07/04 00:11:03;;;;;;;7.30;1.70;;;13.40;99.90;;;;;;5025874;28;20052;-59
2023/07/04 00:13:31;;;;;;;8.40;1.88;;;13.30;99.90;;;;;;5038413;28;20060;-59
2023/07/04 00:15:57;;;;;;;7.70;2.00;;;13.40;99.90;;;;;;5044829;28;20041;-59
2023/07/04 00:18:25;;;;;;;10.68;2.35;;;13.40;99.90;;;;;;5037256;28;20048;-59
2023/07/04 00:20:54;;;;;;;11.77;2.30;;;13.40;99.90;;;;;;5043895;28;20515;-59
2023/07/04 00:23:33;;;;;;;7.65;1.90;;;13.40;99.90;;;;;;5038701;28;20429;-59
2023/07/04 00:26:06;;;;;;;7.53;2.10;;;13.40;99.90;;;;;;5021988;28;20042;-59
2023/07/04 00:28:33;;;;;;;12.52;2.38;;;13.30;99.90;;;;;;5036089;28;20067;-58
2023/07/04 00:31:02;;;;;;;8.02;2.03;;;13.30;99.90;;;;;;5035733;28;20040;-58
2023/07/04 00:33:28;;;;;;;8.18;1.65;;;13.30;99.90;;;;;;5042215;28;20454;-59
2023/07/04 00:36:00;;;;;;;4.65;1.85;;;13.30;99.90;;;;;;5035444;28;20037;-59
2023/07/04 00:38:26;;;;;;;6.18;1.90;;;13.30;99.90;;;;;;5040529;28;20550;-58
2023/07/04 00:40:54;;;;;;;9.35;2.85;;;13.30;99.90;;;;;;5040394;28;20427;-59
2023/07/04 00:43:21;;;;;;;8.98;2.40;;;13.30;99.90;;;;;;5047362;28;20430;-59
2023/07/04 00:45:55;;;;;;;8.70;2.40;;;13.30;99.90;;;;;;5048490;28;20445;-58
2023/07/04 00:48:23;;;;;;;8.48;2.10;;;13.30;99.90;;;;;;5045485;28;20107;-58
2023/07/04 00:50:53;;;;;;;9.23;2.05;;;13.20;99.90;;;;;;5039806;28;20326;-59
2023/07/04 00:53:19;;;;;;;13.77;2.90;;;13.20;99.90;;;;;;5046566;28;20041;-59
2023/07/04 00:55:49;;;;;;;9.85;1.92;;;13.20;99.90;;;;;;5039189;28;20462;-58
2023/07/04 00:58:15;;;;;;;5.38;1.88;;;13.20;99.90;;;;;;5045296;28;20044;-57
2023/07/04 01:00:42;;;;;;;8.68;2.08;;;13.20;99.90;;;;;;5046157;28;20304;-59
2023/07/04 01:03:18;;;;;;;9.77;2.03;;;13.20;99.90;;;;;;5045981;28;20435;-59
2023/07/04 01:06:13;;;;;;;8.68;2.17;;;13.20;99.90;;;;;;5037978;28;20376;-59
2023/07/04 01:08:45;;;;;;;4.78;1.98;;;13.30;99.90;;;;;;5035520;28;20156;-59
2023/07/04 01:11:21;;;;;;;6.20;1.73;;;13.30;99.90;;;;;;5048252;28;20083;-58
2023/07/04 01:13:47;;;;;;;5.53;1.90;;;13.20;99.90;;;;;;5036825;28;20048;-59
2023/07/04 01:16:16;;;;;;;6.45;1.70;;;13.30;99.90;;;;;;5045388;28;20117;-59
2023/07/04 01:18:46;;;;;;;5.82;1.90;;;13.30;99.90;;;;;;5040384;28;20487;-59
2023/07/04 01:21:14;;;;;;;5.85;1.70;;;13.30;99.90;;;;;;5037993;28;20040;-58
2023/07/04 01:24:01;;;;;;;7.28;1.85;;;13.30;99.90;;;;;;5032676;28;20040;-59
2023/07/04 01:26:33;;;;;;;6.35;2.20;;;13.30;99.90;;;;;;5040456;28;20048;-58
2023/07/04 01:29:01;;;;;;;7.20;2.00;;;13.30;99.90;;;;;;5039402;28;20383;-58
2023/07/04 01:31:30;;;;;;;6.00;2.45;;;13.30;99.90;;;;;;5030345;28;20040;-59
2023/07/04 01:33:56;;;;;;;7.35;1.77;;;13.30;99.90;;;;;;5041041;28;20045;-59
2023/07/04 01:36:26;;;;;;;8.93;2.13;;;13.30;99.90;;;;;;5035960;28;20045;-59
2023/07/04 01:38:53;;;;;;;5.60;1.88;;;13.30;99.90;;;;;;5042442;28;20037;-59
2023/07/04 01:41:19;;;;;;;7.93;2.40;;;13.30;99.90;;;;;;5037683;28;20036;-59
2023/07/04 01:43:50;;;;;;;6.32;1.90;;;13.30;99.90;;;;;;5040594;28;20543;-59
2023/07/04 01:46:17;;;;;;;8.00;2.72;;;13.30;99.90;;;;;;5024122;28;20431;-58
2023/07/04 01:48:42;;;;;;;8.65;2.40;;;13.30;99.90;;;;;;5027595;28;20094;-58
2023/07/04 01:51:08;;;;;;;6.03;1.80;;;13.30;99.90;;;;;;5045376;28;20036;-58
2023/07/04 01:53:34;;;;;;;5.82;1.70;;;13.30;99.90;;;;;;5041711;28;20447;-59
2023/07/04 01:55:59;;;;;;;6.43;2.22;;;13.30;99.90;;;;;;5046270;28;20037;-59
2023/07/04 01:58:25;;;;;;;4.70;1.73;;;13.30;99.90;;;;;;5043506;28;20504;-58
2023/07/04 02:00:51;;;;;;;5.53;1.80;;;13.30;99.90;;;;;;5042375;28;20034;-58
2023/07/04 02:03:16;;;;;;;6.32;2.20;;;13.30;99.90;;;;;;5037394;28;20503;-59
2023/07/04 02:05:42;;;;;;;8.20;2.13;;;13.30;99.90;;;;;;5036659;28;20127;-59
2023/07/04 02:08:08;;;;;;;7.78;2.08;;;13.20;99.90;;;;;;5037084;28;20107;-59
2023/07/04 02:10:34;;;;;;;5.07;1.70;;;13.30;99.90;;;;;;5042643;28;20127;-59
2023/07/04 02:12:59;;;;;;;9.48;2.10;;;13.30;99.90;;;;;;5044513;28;20128;-57
2023/07/04 02:15:26;;;;;;;5.43;1.90;;;13.30;99.90;;;;;;5041845;28;20043;-59
2023/07/04 02:17:51;;;;;;;5.25;1.77;;;13.40;99.90;;;;;;5037490;28;20041;-59
2023/07/04 02:20:17;;;;;;;9.65;1.85;;;13.40;99.90;;;;;;5035112;28;20400;-59
2023/07/04 02:22:43;;;;;;;6.78;2.42;;;13.40;99.90;;;;;;5039344;28;20466;-58
2023/07/04 02:25:10;;;;;;;6.65;2.00;;;13.40;99.90;;;;;;5023316;28;20073;-59
2023/07/04 02:27:35;;;;;;;7.68;2.30;;;13.40;99.90;;;;;;5042823;28;20526;-58
2023/07/04 02:30:02;;;;;;;5.35;1.77;;;13.50;99.90;;;;;;5016702;28;20033;-58
2023/07/04 02:32:28;;;;;;;5.57;1.63;;;13.50;99.90;;;;;;5035580;28;20742;-59
2023/07/04 02:34:54;;;;;;;5.10;1.80;;;13.50;99.90;;;;;;5035898;28;20072;-59
2023/07/04 02:37:19;;;;;;;3.67;1.50;;;13.50;99.90;;;;;;5022929;28;20133;-59
2023/07/04 02:39:45;;;;;;;7.22;1.58;;;13.50;99.90;;;;;;5039655;28;20434;-59
2023/07/04 02:42:12;;;;;;;4.13;1.40;;;13.50;99.90;;;;;;5041325;28;20030;-59
2023/07/04 02:44:37;;;;;;;3.97;1.10;;;13.50;99.90;;;;;;5044501;28;20124;-58
2023/07/04 02:47:04;;;;;;;4.72;1.10;;;13.50;99.90;;;;;;5042757;28;20187;-58
2023/07/04 02:49:29;;;;;;;7.18;1.30;;;13.50;99.90;;;;;;5043854;28;20518;-59
2023/07/04 02:51:55;;;;;;;7.00;1.67;;;13.50;99.90;;;;;;5044512;28;20124;-59
2023/07/04 02:54:21;;;;;;;4.07;0.95;;;13.40;99.90;;;;;;5043425;28;20403;-59
2023/07/04 02:56:46;;;;;;;7.65;1.35;;;13.40;99.90;;;;;;5042274;28;20171;-59
2023/07/04 02:59:12;;;;;;;2.88;1.20;;;13.40;99.90;;;;;;5036962;28;20065;-59
2023/07/04 03:01:38;;;;;;;2.85;1.30;;;13.40;99.90;;;;;;5030310;28;20045;-57
2023/07/04 03:04:04;;;;;;;4.32;1.30;;;13.40;99.90;;;;;;5040752;28;20053;-58
2023/07/04 03:06:30;;;;;;;6.55;1.48;;;13.30;99.90;;;;;;5025863;28;20072;-59
2023/07/04 03:08:56;;;;;;;7.43;1.73;;;13.30;99.90;;;;;;5042360;28;20041;-58
2023/07/04 03:11:22;;;;;;;5.13;1.92;;;13.30;99.90;;;;;;5042280;28;20253;-58
2023/07/04 03:13:50;;;;;;;3.33;1.10;;;13.30;99.90;;;;;;5043768;28;20374;-59
2023/07/04 03:16:16;;;;;;;3.90;1.20;;;13.20;99.90;;;;;;5042484;28;20053;-58
2023/07/04 03:18:41;;;;;;;7.55;1.42;;;13.20;99.90;;;;;;5047309;28;20523;-58
2023/07/04 03:21:07;;;;;;;3.75;1.17;;;13.20;99.90;;;;;;5042290;28;20066;-58
2023/07/04 03:23:33;;;;;;;4.43;1.02;;;13.10;99.90;;;;;;5023218;28;20049;-57
2023/07/04 03:25:58;;;;;;;4.65;1.50;;;13.10;99.90;;;;;;5040618;28;20037;-59
2023/07/04 03:28:24;;;;;;;1.40;0.70;;;13.10;99.90;;;;;;5037728;28;20052;-59
2023/07/04 03:30:50;;;;;;;5.10;0.80;;;13.10;99.90;;;;;;5022254;28;20120;-58
2023/07/04 03:33:16;;;;;;;4.07;0.95;;;13.00;99.90;;;;;;5046360;28;20052;-57
2023/07/04 03:35:42;;;;;;;1.67;0.82;;;13.00;99.90;;;;;;5032548;28;20110;-59
2023/07/04 03:38:07;;;;;;;1.27;0.65;;;13.00;99.90;;;;;;5045471;28;20040;-58
2023/07/04 03:40:33;;;;;;;3.05;0.70;;;13.00;99.90;;;;;;5038307;28;20041;-59
2023/07/04 03:42:59;;;;;;;0.80;0.50;;;12.90;99.90;;;;;;5042889;28;20069;-59
2023/07/04 03:45:24;;;;;;;2.38;0.90;;;12.90;99.90;;;;;;5044302;28;20045;-59
2023/07/04 03:47:51;;;;;;;2.15;0.90;;;12.90;99.90;;;;;;5035912;28;20041;-59
2023/07/04 03:50:16;;;;;;;3.20;0.80;;;12.90;99.90;;;;;;5041330;28;20118;-57
2023/07/04 03:52:42;;;;;;;0.98;0.50;;;12.90;99.90;;;;;;5046275;28;20349;-59
2023/07/04 03:55:08;;;;;;;2.70;0.80;;;12.90;99.90;;;;;;5042128;28;20056;-59
2023/07/04 03:57:34;;;;;;;2.30;0.90;;;12.90;99.90;;;;;;5018757;28;20098;-58
2023/07/04 04:00:00;;;;;;;2.28;0.85;;;12.90;99.90;;;;;;5038978;28;20029;-59
2023/07/04 04:02:26;;;;;;;1.55;0.80;;;12.90;99.90;;;;;;5040421;28;20412;-59
2023/07/04 04:04:51;;;;;;;2.10;0.63;;;12.90;99.90;;;;;;5040659;28;20182;-58
2023/07/04 04:07:17;;;;;;;2.15;0.70;;;12.90;99.90;;;;;;5028674;28;20045;-59
2023/07/04 04:09:43;;;;;;;3.30;1.00;;;12.90;99.90;;;;;;5045884;28;20538;-58
2023/07/04 04:12:09;;;;;;;3.80;0.93;;;12.80;99.90;;;;;;5044276;28;20041;-59
2023/07/04 04:14:36;;;;;;;3.60;0.75;;;12.80;99.90;;;;;;5040971;28;20033;-59
2023/07/04 04:17:03;;;;;;;1.63;0.70;;;12.90;99.90;;;;;;5028761;28;20045;-58
2023/07/04 04:19:29;;;;;;;0.90;0.60;;;12.80;99.90;;;;;;5027345;28;20065;-59
2023/07/04 04:21:55;;;;;;;3.88;0.90;;;12.90;99.90;;;;;;5045288;28;20110;-58
2023/07/04 04:24:22;;;;;;;2.45;0.85;;;12.90;99.90;;;;;;5040698;28;20388;-58
2023/07/04 04:26:48;;;;;;;3.47;0.80;;;12.90;99.90;;;;;;5052915;28;20033;-59
2023/07/04 04:29:17;;;;;;;4.95;0.80;;;12.90;99.90;;;;;;5039614;28;20538;-58
2023/07/04 04:31:44;;;;;;;5.00;0.80;;;13.00;99.90;;;;;;5043845;28;20304;-59
2023/07/04 04:34:11;;;;;;;2.42;0.90;;;13.00;99.90;;;;;;5046048;28;20458;-59
2023/07/04 04:36:37;;;;;;;2.63;0.73;;;13.10;99.90;;;;;;5043250;28;20045;-58
2023/07/04 04:39:04;;;;;;;4.38;1.42;;;13.10;99.90;;;;;;5039905;28;20634;-58
2023/07/04 04:41:30;;;;;;;2.28;0.85;;;13.20;99.90;;;;;;5043305;28;20033;-59
2023/07/04 04:43:58;;;;;;;3.25;1.10;;;13.20;99.90;;;;;;5046242;28;20076;-59
2023/07/04 04:46:24;;;;;;;2.60;1.10;;;13.30;99.90;;;;;;5021857;28;20041;-59
2023/07/04 04:48:52;;;;;;;4.03;1.00;;;13.30;99.90;;;;;;5045926;28;20052;-58
2023/07/04 04:51:18;;;;;;;2.47;0.82;;;13.30;99.90;;;;;;5043442;28;20036;-58
2023/07/04 04:53:44;;;;;;;3.88;1.10;;;13.40;99.90;;;;;;5039044;28;20308;-58
2023/07/04 04:56:12;;;;;;;5.00;1.30;;;13.40;99.90;;;;;;5048589;28;20599;-59
2023/07/04 04:58:43;;;;;;;3.90;0.95;;;13.40;99.90;;;;;;5041584;28;20560;-58
2023/07/04 05:01:15;;;;;;;4.93;0.95;;;13.50;99.90;;;;;;5046100;28;20071;-59
2023/07/04 05:03:45;;;;;;;5.07;1.20;;;13.60;99.90;;;;;;5026253;28;20045;-59
2023/07/04 05:06:12;;;;;;;3.10;1.23;;;13.60;99.90;;;;;;5025595;28;20057;-59
2023/07/04 05:08:38;;;;;;;5.15;1.20;;;13.70;99.90;;;;;;5020727;28;20102;-58
2023/07/04 05:11:07;;;;;;;4.38;1.33;;;13.70;99.90;;;;;;5044438;28;20041;-58
2023/07/04 05:13:38;;;;;;;5.07;1.35;;;13.80;99.90;;;;;;5047196;28;20037;-59
2023/07/04 05:16:06;;;;;;;5.70;1.63;;;13.80;99.90;;;;;;5041407;28;20044;-58
2023/07/04 05:18:34;;;;;;;7.00;1.30;;;13.90;99.90;;;;;;5049308;28;20037;-58
2023/07/04 05:21:07;;;;;;;6.25;1.95;;;14.00;99.90;;;;;;5039383;28;20049;-59
2023/07/04 05:23:35;;;;;;;4.90;1.20;;;14.00;99.90;;;;;;5040460;28;20106;-59
2023/07/04 05:26:06;;;;;;;5.40;1.67;;;14.00;99.90;;;;;;5036340;28;20287;-59
2023/07/04 05:28:32;;;;;;;7.25;1.73;;;14.20;99.90;;;;;;5042253;28;20041;-57
2023/07/04 05:31:18;;;;;;;5.43;1.50;;;14.30;99.90;;;;;;5037160;28;20033;-60
2023/07/04 05:33:44;;;;;;;7.90;1.48;;;14.40;99.90;;;;;;5040206;28;20440;-61
2023/07/04 05:36:20;;;;;;;7.25;1.30;;;14.50;99.90;;;;;;5037749;28;20047;-60
2023/07/04 05:38:54;;;;;;;5.55;1.40;;;14.60;99.90;;;;;;5038407;28;20041;-60
2023/07/04 05:41:23;;;;;;;5.93;1.42;;;14.60;99.90;;;;;;5047583;28;20049;-60
2023/07/04 05:43:49;;;;;;;5.82;1.35;;;14.70;99.90;;;;;;5026799;28;20506;-59
2023/07/04 05:46:17;;;;;;;5.80;1.45;;;14.70;99.90;;;;;;5044712;28;21355;-61
2023/07/04 05:48:43;;;;;;;4.65;1.30;;;14.80;99.90;;;;;;5047979;28;20045;-59
2023/07/04 05:51:12;;;;;;;7.80;1.45;;;14.80;99.90;;;;;;5047148;28;20036;-61
2023/07/04 05:53:40;;;;;;;4.03;1.33;;;14.90;99.90;;;;;;5046650;28;20124;-61
2023/07/04 05:56:11;;;;;;;8.10;1.60;;;15.00;99.90;;;;;;5043016;28;20642;-61
2023/07/04 05:58:39;;;;;;;4.60;1.35;;;15.00;99.90;;;;;;5046494;28;20045;-61
2023/07/04 06:01:09;;;;;;;6.30;1.55;;;15.10;99.90;;;;;;5045627;28;20047;-61
2023/07/04 06:03:35;;;;;;;5.22;1.80;;;15.20;99.90;;;;;;5044330;28;20028;-61
2023/07/04 06:06:05;;;;;;;7.47;1.60;;;15.20;99.90;;;;;;5043396;28;20304;-61
2023/07/04 06:08:32;;;;;;;7.35;1.55;;;15.20;99.90;;;;;;5050806;28;20049;-61
2023/07/04 06:11:04;;;;;;;6.80;1.40;;;15.30;99.90;;;;;;5033282;28;20072;-60
2023/07/04 06:13:33;;;;;;;7.20;1.20;;;15.30;99.90;;;;;;5044778;28;20454;-61
2023/07/04 06:16:03;;;;;;;4.97;1.33;;;15.40;99.90;;;;;;5045162;28;20851;-59
2023/07/04 06:18:29;;;;;;;6.50;1.63;;;15.40;99.90;;;;;;5046888;28;20451;-60
2023/07/04 06:21:16;;;;;;;5.85;1.58;;;15.40;99.90;;;;;;5041119;28;20079;-60
2023/07/04 06:23:42;;;;;;;9.20;1.60;;;15.50;99.90;;;;;;5035243;28;20253;-59
2023/07/04 06:26:09;;;;;;;5.95;1.17;;;15.60;99.90;;;;;;5042144;28;20110;-60
2023/07/04 06:28:36;;;;;;;6.72;1.60;;;15.70;99.90;;;;;;5048231;28;20144;-59
2023/07/04 06:31:06;;;;;;;3.38;0.90;;;15.80;99.90;;;;;;5040452;28;20491;-61
2023/07/04 06:33:32;;;;;;;4.43;1.30;;;15.80;99.90;;;;;;5034364;28;20045;-61
2023/07/04 06:35:58;;;;;;;6.70;1.52;;;15.90;99.90;;;;;;5018337;28;20083;-61
2023/07/04 06:38:25;;;;;;;6.38;1.90;;;16.00;99.90;;;;;;5040450;28;20075;-60
2023/07/04 06:41:14;;;;;;;8.80;1.50;;;16.00;99.90;;;;;;5038123;28;20068;-60
2023/07/04 06:43:45;;;;;;;6.18;1.23;;;16.00;99.90;;;;;;5040556;28;20041;-60
2023/07/04 06:46:17;;;;;;;5.60;1.52;;;16.00;99.90;;;;;;5042334;28;20044;-61
2023/07/04 06:48:45;;;;;;;5.25;1.30;;;16.10;99.90;;;;;;5044311;28;20120;-61
2023/07/04 06:51:15;;;;;;;6.70;1.77;;;16.10;99.90;;;;;;5047699;28;20047;-60
2023/07/04 06:53:41;;;;;;;4.50;1.08;;;16.10;99.90;;;;;;5042005;28;20124;-61
2023/07/04 06:56:16;;;;;;;6.68;1.50;;;16.20;99.90;;;;;;5040403;28;20762;-61
2023/07/04 06:58:46;;;;;;;5.32;1.02;;;16.30;99.90;;;;;;5041346;28;20215;-61
2023/07/04 07:01:12;;;;;;;6.40;1.55;;;16.40;99.90;;;;;;5043413;28;20053;-60
2023/07/04 07:03:38;;;;;;;10.35;1.35;;;16.40;99.90;;;;;;5040627;28;20672;-61
2023/07/04 07:06:06;;;;;;;6.10;1.55;;;16.50;99.90;;;;;;5042898;28;20048;-61
2023/07/04 07:08:33;;;;;;;6.53;1.20;;;16.50;99.90;;;;;;5023673;28;20160;-61
2023/07/04 07:11:03;;;;;;;4.63;1.35;;;16.40;99.90;;;;;;5033794;28;20312;-60
2023/07/04 07:13:29;;;;;;;5.47;1.50;;;16.40;99.90;;;;;;5041797;28;20041;-61
2023/07/04 07:16:15;;;;;;;3.92;1.40;;;16.50;99.90;;;;;;5042285;28;20772;-60
2023/07/04 07:18:42;;;;;;;7.18;1.60;;;16.60;99.90;;;;;;5043379;28;20045;-61
2023/07/04 07:21:10;;;;;;;3.95;1.25;;;16.70;99.90;;;;;;5044787;28;20033;-61
2023/07/04 07:23:37;;;;;;;5.47;1.55;;;16.80;99.90;;;;;;5038186;28;20729;-60
2023/07/04 07:26:06;;;;;;;6.72;1.38;;;16.80;99.90;;;;;;5041153;28;20041;-61
2023/07/04 07:28:38;;;;;;;8.95;1.50;;;16.80;99.90;;;;;;5024245;28;20075;-60
2023/07/04 07:31:11;;;;;;;6.38;1.67;;;16.70;99.90;;;;;;5038186;28;20040;-61
2023/07/04 07:33:45;;;;;;;5.63;1.43;;;16.70;99.90;;;;;;5042288;28;20094;-61
2023/07/04 07:36:13;;;;;;;;;;;16.80;99.90;;;;;;5023229;28;20033;-61
2023/07/04 07:38:40;;;;;;;4.80;1.40;;;16.80;99.90;;;;;;5041714;28;19928;-61
2023/07/04 07:41:07;;;;;;;6.07;1.40;;;16.90;99.90;;;;;;5042325;28;20049;-61
2023/07/04 07:43:34;;;;;;;6.20;1.17;;;16.90;99.90;;;;;;5035817;28;20655;-60
2023/07/04 07:46:00;;;;;;;4.35;1.50;;;16.90;99.90;;;;;;5033868;28;20041;-60
2023/07/04 07:48:26;;;;;;;6.35;1.77;;;17.00;99.90;;;;;;5021356;28;20053;-61
2023/07/04 07:50:52;;;;;;;4.63;1.40;;;17.10;99.90;;;;;;5029111;28;20036;-61
2023/07/04 07:53:18;;;;;;;7.05;1.55;;;17.10;99.90;;;;;;5041087;28;20083;-61
2023/07/04 07:55:45;;;;;;;3.30;1.40;;;17.20;99.90;;;;;;5046357;28;20515;-61
2023/07/04 07:58:10;;;;;;;5.72;1.92;;;17.20;99.90;;;;;;5036225;28;20040;-61
2023/07/04 08:00:37;;;;;;;7.95;1.55;;;17.20;99.90;;;;;;5042094;28;20237;-60
2023/07/04 08:03:02;;;;;;;6.63;1.70;;;17.20;99.90;;;;;;5038479;28;20040;-60
2023/07/04 08:05:28;;;;;;;6.63;1.45;;;17.30;99.90;;;;;;5039930;28;20045;-61
2023/07/04 08:07:54;;;;;;;6.25;1.42;;;17.40;99.90;;;;;;5044178;28;20037;-60
2023/07/04 08:10:20;;;;;;;10.38;1.85;;;17.40;99.90;;;;;;5044212;28;20033;-60
2023/07/04 08:12:46;;;;;;;10.60;2.22;;;17.40;99.90;;;;;;5038889;28;20099;-60
2023/07/04 08:15:11;;;;;;;7.05;2.08;;;17.20;99.90;;;;;;5040982;28;20325;-61
2023/07/04 08:17:37;;;;;;;7.43;1.83;;;17.20;99.90;;;;;;5045531;28;20068;-60
2023/07/04 08:20:05;;;;;;;10.73;2.08;;;17.20;99.90;;;;;;5031201;28;20467;-61
2023/07/04 08:22:31;;;;;;;9.30;1.98;;;17.20;99.90;;;;;;5029134;28;20083;-60
2023/07/04 08:24:58;;;;;;;7.57;2.10;;;17.20;99.90;;;;;;5042679;28;20048;-60
2023/07/04 08:27:25;;;;;;;9.43;1.80;;;17.50;99.90;;;;;;5042797;28;20503;-61
2023/07/04 08:29:51;;;;;;;9.63;2.25;;;17.70;99.90;;;;;;5042286;28;20115;-60
2023/07/04 08:32:20;;;;;;;10.02;1.77;;;17.90;99.90;;;;;;5036309;28;20116;-60
2023/07/04 08:34:46;;;;;;;7.95;1.90;;;17.90;99.90;;;;;;5027845;28;20045;-61
2023/07/04 08:37:13;;;;;;;11.15;3.00;;;18.10;99.90;;;;;;5035409;28;20115;-60
2023/07/04 08:39:40;;;;;;;7.70;2.20;;;18.30;99.90;;;;;;5039496;28;20049;-60
2023/07/04 08:42:07;;;;;;;7.55;2.20;;;18.40;99.90;;;;;;5041132;28;20029;-59
2023/07/04 08:44:43;;;;;;;8.98;2.45;;;18.40;99.90;;;;;;5038241;28;20400;-59
2023/07/04 08:47:18;;;;;;;12.65;1.90;;;18.30;99.90;;;;;;5041769;28;20052;-61
2023/07/04 08:49:56;;;;;;;10.60;2.20;;;18.40;99.90;;;;;;5035361;28;20497;-61
2023/07/04 08:52:41;;;;;;;9.98;2.30;;;18.20;99.90;;;;;;5040834;28;20555;-60
2023/07/04 08:55:16;;;;;;;11.02;2.50;;;17.90;99.90;;;;;;5044903;28;20041;-60
2023/07/04 08:57:45;;;;;;;12.27;2.30;;;17.80;99.90;;;;;;5042832;28;20056;-60
2023/07/04 09:00:35;;;;;;;5.32;1.83;;;17.80;99.90;;;;;;5042295;28;20132;-61
2023/07/04 09:03:13;;;;;;;9.60;2.75;;;17.90;99.20;;;;;;5026352;28;20114;-61
2023/07/04 09:05:57;;;;;;;11.00;2.40;;;18.10;99.50;;;;;;5040434;28;20126;-60
2023/07/04 09:08:45;;;;;;;11.98;2.25;;;18.00;99.60;;;;;;5036144;28;20052;-60
2023/07/04 09:11:12;;;;;;;4.97;1.42;;;17.90;99.80;;;;;;5042292;28;20057;-61
2023/07/04 09:13:44;;;;;;;11.40;2.15;;;17.70;99.40;;;;;;5044046;28;20040;-60
2023/07/04 09:16:12;;;;;;;9.38;1.52;;;17.90;99.70;;;;;;5031302;28;20501;-60
2023/07/04 09:19:00;;;;;;;6.05;1.67;;;18.10;99.50;;;;;;5037805;28;20037;-60
2023/07/04 09:21:28;;;;;;;7.13;2.17;;;18.40;98.90;;;;;;5022137;28;20366;-60
2023/07/04 09:23:58;;;;;;;7.95;1.50;;;18.50;99.10;;;;;;5045404;28;20416;-60
2023/07/04 09:26:27;;;;;;;5.05;1.65;;;18.60;98.80;;;;;;5035220;28;20091;-60
2023/07/04 09:28:56;;;;;;;8.60;1.95;;;18.50;98.40;;;;;;5040885;28;20111;-61
2023/07/04 09:31:42;;;;;;;6.18;1.80;;;18.40;98.00;;;;;;5042755;28;20665;-61
2023/07/04 09:34:34;;;;;;;5.82;1.58;;;18.00;97.90;;;;;;5041611;28;20090;-60
2023/07/04 09:37:10;;;;;;;8.45;1.75;;;18.00;98.50;;;;;;5041875;28;20039;-60
2023/07/04 09:39:46;;;;;;;5.20;1.48;;;18.20;98.80;;;;;;5045922;28;20060;-60
2023/07/04 09:42:12;;;;;;;12.23;2.22;;;18.00;98.50;;;;;;5047319;28;20811;-60
2023/07/04 09:44:38;;;;;;;5.68;1.40;;;18.10;98.70;;;;;;5047898;28;20041;-59
2023/07/04 09:47:05;;;;;;;5.45;1.40;;;17.90;98.20;;;;;;5044396;28;20056;-60
2023/07/04 09:49:39;;;;;;;9.05;2.22;;;17.90;98.20;;;;;;5042809;28;20063;-60
2023/07/04 09:52:09;;;;;;;10.80;1.90;;;18.10;98.10;;;;;;5040544;28;20116;-61
2023/07/04 09:54:37;;;;;;;6.72;1.58;;;18.20;98.30;;;;;;5044203;28;20048;-61
2023/07/04 09:57:24;;;;;;;7.97;2.00;;;18.40;98.70;;;;;;5039766;28;20506;-60
2023/07/04 09:59:51;;;;;;;7.50;1.80;;;18.70;98.60;;;;;;5044236;28;20086;-60
2023/07/04 10:02:37;;;;;;;6.05;1.60;;;18.60;98.50;;;;;;5027364;28;20045;-61
2023/07/04 10:05:03;;;;;;;5.70;1.65;;;18.80;97.90;;;;;;5038300;28;20060;-60
2023/07/04 10:07:28;;;;;;;5.78;1.60;;;18.70;97.70;;;;;;5042305;28;20547;-60
2023/07/04 10:10:06;;;;;;;4.45;1.63;;;18.90;97.70;;;;;;5045794;28;20044;-61
2023/07/04 10:12:41;;;;;;;6.38;1.55;;;19.10;96.80;;;;;;5041014;28;20045;-60
2023/07/04 10:15:08;;;;;;;9.55;2.00;;;19.30;96.20;;;;;;5041769;28;20041;-61
2023/07/04 10:17:37;;;;;;;5.97;1.40;;;19.40;96.90;;;;;;5046353;28;20041;-61
2023/07/04 10:20:13;;;;;;;7.18;1.92;;;19.10;96.70;;;;;;5044843;28;20203;-60
2023/07/04 10:22:49;;;;;;;10.27;2.15;;;19.00;97.30;;;;;;5035383;28;20393;-60
2023/07/04 10:25:21;;;;;;;6.78;1.77;;;18.70;97.00;;;;;;5041870;28;20033;-60
2023/07/04 10:27:57;;;;;;;8.20;1.70;;;18.80;97.20;;;;;;5040101;28;20041;-61
2023/07/04 10:30:29;;;;;;;5.80;1.50;;;19.20;97.00;;;;;;5036660;28;20034;-60
2023/07/04 10:33:00;;;;;;;7.93;1.83;;;19.60;96.10;;;;;;5038310;28;20041;-61
2023/07/04 10:35:30;;;;;;;7.25;2.35;;;19.90;96.00;;;;;;5041048;28;20048;-60
2023/07/04 10:38:04;;;;;;;10.13;2.25;;;20.00;95.80;;;;;;5047631;28;20500;-61
2023/07/04 10:40:35;;;;;;;4.60;1.55;;;19.60;94.70;;;;;;5035455;28;20044;-61
2023/07/04 10:43:13;;;;;;;10.02;1.80;;;19.50;95.10;;;;;;5047268;28;20040;-61
2023/07/04 10:45:41;;;;;;;8.88;2.80;;;19.30;95.50;;;;;;5038639;28;20036;-61
2023/07/04 10:48:14;;;;;;;6.10;1.60;;;19.10;95.10;;;;;;5037092;28;20041;-61
2023/07/04 10:50:52;;;;;;;9.45;2.00;;;19.00;95.40;;;;;;5040950;28;20035;-61
2023/07/04 10:53:18;;;;;;;9.68;2.15;;;19.10;96.30;;;;;;5036088;28;20052;-61
2023/07/04 10:55:49;;;;;;;6.90;1.83;;;19.30;95.60;;;;;;5040134;28;20377;-61
2023/07/04 10:58:18;;;;;;;8.90;1.85;;;19.60;95.70;;;;;;5045380;28;20064;-60
2023/07/04 11:01:11;;;;;;;4.18;1.30;;;19.70;95.50;;;;;;5041839;28;20592;-61
2023/07/04 11:03:43;;;;;;;8.05;2.10;;;19.50;95.20;;;;;;5007729;28;20486;-61
2023/07/04 11:06:15;;;;;;;7.07;1.70;;;19.20;95.00;;;;;;5040924;28;20044;-60
2023/07/04 11:08:41;;;;;;;7.75;2.10;;;19.10;95.60;;;;;;5041425;28;20095;-60
2023/07/04 11:11:10;;;;;;;7.85;2.40;;;19.00;96.40;;;;;;5045429;28;20040;-60
2023/07/04 11:13:51;;;;;;;9.43;2.95;;;18.80;96.40;;;;;;5040265;28;20396;-61
2023/07/04 11:16:22;;;;;;;6.70;1.88;;;19.00;96.90;;;;;;5039026;28;20046;-61
2023/07/04 11:19:03;;;;;;;6.47;2.17;;;19.20;97.20;;;;;;5044852;28;20520;-61
2023/07/04 11:21:29;;;;;;;8.18;1.75;;;19.10;97.00;;;;;;5041343;28;20446;-61
2023/07/04 11:24:13;;;;;;;7.10;2.08;;;19.10;96.70;;;;;;5032573;28;20318;-60
2023/07/04 11:27:08;;;;;;;7.95;1.80;;;19.10;97.10;;;;;;5036875;28;20304;-60
2023/07/04 11:29:46;;;;;;;10.77;2.72;;;19.40;97.50;;;;;;5007916;28;20394;-60
2023/07/04 11:32:17;;;;;;;8.77;2.15;;;19.30;96.00;;;;;;5043009;28;20037;-60
2023/07/04 11:34:49;;;;;;;7.38;1.95;;;19.40;96.20;;;;;;5044965;28;20041;-60
2023/07/04 11:37:17;;;;;;;7.57;1.80;;;19.60;95.30;;;;;;5039933;28;20068;-60
2023/07/04 11:39:49;;;;;;;7.45;2.10;;;19.40;96.20;;;;;;5039561;28;20509;-61
2023/07/04 11:42:17;;;;;;;10.05;1.77;;;19.30;96.20;;;;;;5041448;28;20029;-59
2023/07/04 11:45:05;;;;;;;9.52;1.95;;;19.60;96.10;;;;;;5036473;28;20051;-61
2023/07/04 11:47:42;;;;;;;4.40;1.40;;;20.20;96.60;;;;;;5042851;28;20044;-60
2023/07/04 11:50:13;;;;;;;7.80;1.65;;;20.70;94.10;;;;;;5044462;28;20049;-60
2023/07/04 11:52:41;;;;;;;6.43;1.75;;;20.30;93.40;;;;;;5017833;28;20124;-60
2023/07/04 11:55:16;;;;;;;7.80;1.95;;;19.90;94.60;;;;;;5045098;28;20356;-60
2023/07/04 11:58:02;;;;;;;4.95;1.55;;;20.30;94.50;;;;;;5031882;28;20033;-60
2023/07/04 12:00:38;;;;;;;6.75;1.40;;;20.60;93.40;;;;;;5043560;28;20053;-60
2023/07/04 12:03:16;;;;;;;6.25;1.38;;;20.70;93.40;;;;;;5035531;28;20523;-60
2023/07/04 12:05:42;;;;;;;4.63;1.67;;;20.90;92.60;;;;;;5041852;28;20072;-59
2023/07/04 12:08:14;;;;;;;6.28;1.90;;;20.80;93.40;;;;;;5024079;28;20119;-60
2023/07/04 12:10:39;;;;;;;5.60;1.40;;;20.50;93.20;;;;;;5044515;28;20098;-61
2023/07/04 12:13:07;;;;;;;7.75;1.77;;;20.20;93.20;;;;;;5043241;28;20033;-60
2023/07/04 12:15:35;;;;;;;9.15;1.52;;;20.00;92.40;;;;;;5034143;28;20402;-60
2023/07/04 12:18:14;;;;;;;5.20;1.52;;;20.30;92.80;;;;;;5042276;28;20178;-60
2023/07/04 12:20:40;;;;;;;7.43;1.60;;;20.30;93.50;;;;;;5040490;28;20029;-61
2023/07/04 12:23:10;;;;;;;7.57;2.05;;;20.60;93.90;;;;;;5026099;28;20036;-61
2023/07/04 12:25:44;;;;;;;7.18;1.65;;;20.90;93.70;;;;;;5033738;28;20058;-61
2023/07/04 12:28:12;;;;;;;7.05;1.70;;;21.00;92.80;;;;;;5034785;28;20111;-61
2023/07/04 12:31:03;;;;;;;3.78;1.42;;;20.60;92.50;;;;;;5045708;28;20449;-60
2023/07/04 12:33:34;;;;;;;7.22;2.25;;;20.30;93.00;;;;;;5036347;28;20074;-60
2023/07/04 12:36:09;;;;;;;8.20;1.95;;;20.00;92.80;;;;;;5042494;28;20039;-60
2023/07/04 12:38:46;;;;;;;8.60;2.55;;;20.10;93.00;;;;;;5029553;28;20164;-60
2023/07/04 12:41:28;;;;;;;5.70;1.63;;;20.30;92.90;;;;;;5047011;28;20055;-59
2023/07/04 12:44:01;;;;;;;6.25;1.80;;;20.40;93.10;;;;;;5036100;28;20038;-60
2023/07/04 12:46:30;;;;;;;7.27;1.73;;;20.60;91.90;;;;;;5047914;28;20053;-61
2023/07/04 12:48:57;;;;;;;7.93;2.10;;;20.40;92.70;;;;;;5039228;28;20291;-60
2023/07/04 12:51:29;;;;;;;8.02;2.08;;;20.60;92.20;;;;;;5034680;28;20045;-60
2023/07/04 12:53:57;;;;;;;8.65;2.22;;;20.50;92.40;;;;;;5039501;28;20347;-59
2023/07/04 12:56:24;;;;;;;6.93;2.33;;;20.10;91.80;;;;;;5048883;28;20396;-60
2023/07/04 12:58:50;;;;;;;12.00;2.55;;;19.90;92.30;;;;;;5023465;28;20041;-60